createdAt,value
2022-10-09T00:01:07.439Z,73.40
2022-10-09T00:03:35.276Z,72.90
2022-10-09T00:06:02.484Z,73.40
2022-10-09T00:08:29.235Z,73.60
2022-10-09T00:10:56.289Z,73.20
2022-10-09T00:13:22.846Z,73.70
2022-10-09T00:15:49.567Z,73.20
2022-10-09T00:18:18.272Z,73.70
2022-10-09T00:20:47.038Z,73.80
2022-10-09T00:23:16.490Z,73.90
2022-10-09T00:25:52.653Z,73.90
2022-10-09T00:28:20.013Z,73.90
2022-10-09T00:30:46.953Z,74.00
2022-10-09T00:33:13.834Z,74.10
2022-10-09T00:35:42.424Z,74.20
2022-10-09T00:38:09.937Z,74.50
2022-10-09T00:40:37.512Z,74.60
2022-10-09T00:43:07.030Z,74.50
2022-10-09T00:45:33.848Z,74.40
2022-10-09T00:48:04.768Z,74.50
2022-10-09T00:50:42.110Z,74.50
2022-10-09T00:53:13.522Z,74.40
2022-10-09T00:55:40.689Z,74.40
2022-10-09T00:58:07.431Z,74.70
2022-10-09T01:00:34.158Z,74.20
2022-10-09T01:03:00.940Z,74.60
2022-10-09T01:05:44.001Z,74.70
2022-10-09T01:08:19.884Z,74.60
2022-10-09T01:10:59.137Z,74.80
2022-10-09T01:13:40.785Z,74.80
2022-10-09T01:16:16.658Z,74.70
2022-10-09T01:19:04.089Z,74.60
2022-10-09T01:21:49.284Z,75.40
2022-10-09T01:24:33.442Z,75.00
2022-10-09T01:27:08.582Z,75.20
2022-10-09T01:29:40.727Z,75.00
2022-10-09T01:32:09.281Z,74.90
2022-10-09T01:34:39.117Z,74.90
2022-10-09T01:37:07.518Z,74.90
2022-10-09T01:39:35.423Z,75.40
2022-10-09T01:42:02.551Z,74.80
2022-10-09T01:44:31.527Z,74.80
2022-10-09T01:46:59.295Z,74.90
2022-10-09T01:49:42.931Z,75.00
2022-10-09T01:52:32.954Z,75.00
2022-10-09T01:55:21.499Z,75.10
2022-10-09T01:58:03.273Z,75.00
2022-10-09T02:00:36.025Z,75.10
2022-10-09T02:03:06.680Z,75.10
2022-10-09T02:05:33.889Z,75.00
2022-10-09T02:08:01.072Z,75.00
2022-10-09T02:10:27.883Z,75.00
2022-10-09T02:12:57.688Z,74.60
2022-10-09T02:15:44.474Z,75.00
2022-10-09T02:18:14.791Z,75.10
2022-10-09T02:20:46.929Z,75.10
2022-10-09T02:23:14.922Z,75.30
2022-10-09T02:25:41.712Z,75.20
2022-10-09T02:28:09.441Z,75.20
2022-10-09T02:30:56.342Z,75.30
2022-10-09T02:33:33.425Z,75.20
2022-10-09T02:36:00.961Z,75.20
2022-10-09T02:38:27.681Z,75.30
2022-10-09T02:40:59.007Z,75.30
2022-10-09T02:43:25.733Z,75.30
2022-10-09T02:45:52.397Z,75.40
2022-10-09T02:48:19.112Z,75.50
2022-10-09T02:50:45.795Z,75.40
2022-10-09T02:53:12.554Z,75.40
2022-10-09T02:55:39.397Z,75.40
2022-10-09T02:58:06.104Z,75.40
2022-10-09T03:00:32.812Z,75.50
2022-10-09T03:02:59.523Z,75.50
2022-10-09T03:05:26.220Z,75.50
2022-10-09T03:07:53.862Z,75.60
2022-10-09T03:10:21.042Z,75.50
2022-10-09T03:12:48.377Z,75.40
2022-10-09T03:15:16.072Z,75.50
2022-10-09T03:17:42.787Z,75.60
2022-10-09T03:20:09.729Z,75.60
2022-10-09T03:22:36.344Z,75.60
2022-10-09T03:25:03.033Z,75.70
2022-10-09T03:27:30.792Z,75.60
2022-10-09T03:29:58.504Z,75.60
2022-10-09T03:32:26.692Z,75.60
2022-10-09T03:34:53.411Z,75.50
2022-10-09T03:37:20.084Z,75.50
2022-10-09T03:39:46.754Z,75.50
2022-10-09T03:42:13.500Z,75.60
2022-10-09T03:44:40.133Z,75.70
2022-10-09T03:47:06.795Z,75.90
2022-10-09T03:49:33.439Z,75.90
2022-10-09T03:52:00.127Z,76.00
2022-10-09T03:54:26.821Z,76.10
2022-10-09T03:56:53.551Z,76.00
2022-10-09T03:59:20.219Z,76.20
2022-10-09T04:01:46.837Z,76.10
2022-10-09T04:04:13.519Z,76.20
2022-10-09T04:06:40.264Z,76.30
2022-10-09T04:09:07.173Z,76.40
2022-10-09T04:11:33.866Z,76.50
2022-10-09T04:14:00.885Z,76.50
2022-10-09T04:16:27.631Z,76.60
2022-10-09T04:18:54.404Z,76.70
2022-10-09T04:21:21.060Z,76.70
2022-10-09T04:23:47.675Z,76.80
2022-10-09T04:26:14.337Z,76.90
2022-10-09T04:28:41.088Z,76.80
2022-10-09T04:31:08.004Z,76.80
2022-10-09T04:33:34.676Z,76.90
2022-10-09T04:36:01.633Z,76.90
2022-10-09T04:38:28.274Z,76.90
2022-10-09T04:41:06.747Z,76.90
2022-10-09T04:43:34.404Z,76.90
2022-10-09T04:46:10.108Z,76.90
2022-10-09T04:48:41.658Z,77.00
2022-10-09T04:51:09.291Z,77.10
2022-10-09T04:53:36.934Z,77.10
2022-10-09T04:56:05.687Z,77.10
2022-10-09T04:58:32.479Z,77.20
2022-10-09T05:00:59.212Z,77.70
2022-10-09T05:03:25.885Z,77.20
2022-10-09T05:05:52.512Z,77.30
2022-10-09T05:08:19.284Z,77.40
2022-10-09T05:10:45.905Z,77.50
2022-10-09T05:13:12.597Z,77.40
2022-10-09T05:15:39.224Z,77.30
2022-10-09T05:18:05.945Z,77.40
2022-10-09T05:20:32.580Z,77.40
2022-10-09T05:22:59.262Z,77.50
2022-10-09T05:25:25.995Z,77.50
2022-10-09T05:27:52.805Z,77.50
2022-10-09T05:30:19.443Z,77.60
2022-10-09T05:32:46.164Z,77.60
2022-10-09T05:35:12.973Z,77.60
2022-10-09T05:37:39.693Z,77.60
2022-10-09T05:40:07.071Z,77.60
2022-10-09T05:42:33.736Z,77.60
2022-10-09T05:45:00.357Z,77.80
2022-10-09T05:47:27.024Z,77.70
2022-10-09T05:49:53.638Z,77.70
2022-10-09T05:52:20.317Z,77.70
2022-10-09T05:54:47.012Z,77.70
2022-10-09T05:57:13.650Z,77.80
2022-10-09T05:59:40.289Z,77.80
2022-10-09T06:02:07.014Z,77.80
2022-10-09T06:04:33.696Z,77.80
2022-10-09T06:07:00.336Z,77.80
2022-10-09T06:09:27.334Z,77.90
2022-10-09T06:11:55.184Z,77.90
2022-10-09T06:14:22.553Z,78.00
2022-10-09T06:16:50.083Z,77.90
2022-10-09T06:19:18.778Z,77.80
2022-10-09T06:21:46.993Z,77.90
2022-10-09T06:24:23.275Z,78.00
2022-10-09T06:26:52.407Z,78.00
2022-10-09T06:29:19.100Z,78.00
2022-10-09T06:31:45.763Z,78.00
2022-10-09T06:34:12.391Z,78.00
2022-10-09T06:36:39.068Z,77.90
2022-10-09T06:39:07.442Z,77.80
2022-10-09T06:41:34.871Z,77.80
2022-10-09T06:44:16.519Z,77.90
2022-10-09T06:46:45.270Z,78.00
2022-10-09T06:49:12.239Z,78.10
2022-10-09T06:51:38.980Z,78.20
2022-10-09T06:54:10.480Z,78.20
2022-10-09T06:56:37.472Z,78.30
2022-10-09T06:59:05.869Z,78.20
2022-10-09T07:01:33.015Z,78.20
2022-10-09T07:04:01.153Z,78.10
2022-10-09T07:06:30.193Z,77.80
2022-10-09T07:09:00.346Z,78.00
2022-10-09T07:11:30.479Z,78.00
2022-10-09T07:13:59.311Z,78.00
2022-10-09T07:16:31.700Z,77.90
2022-10-09T07:19:01.062Z,78.00
2022-10-09T07:21:27.803Z,78.00
2022-10-09T07:23:54.442Z,78.00
2022-10-09T07:26:25.326Z,78.00
2022-10-09T07:28:52.807Z,78.50
2022-10-09T07:31:19.947Z,78.00
2022-10-09T07:33:48.478Z,78.00
2022-10-09T07:36:15.569Z,77.90
2022-10-09T07:38:42.742Z,78.00
2022-10-09T07:41:12.761Z,77.70
2022-10-09T07:43:41.600Z,77.80
2022-10-09T07:46:12.519Z,77.80
2022-10-09T07:48:39.888Z,77.80
2022-10-09T07:51:17.520Z,77.80
2022-10-09T07:53:44.868Z,77.80
2022-10-09T07:56:22.870Z,77.70
2022-10-09T07:58:51.048Z,77.60
2022-10-09T08:01:20.372Z,77.70
2022-10-09T08:03:47.927Z,77.60
2022-10-09T08:06:14.771Z,77.50
2022-10-09T08:08:41.651Z,77.50
2022-10-09T08:11:14.082Z,77.50
2022-10-09T08:13:41.588Z,77.30
2022-10-09T08:16:08.681Z,77.30
2022-10-09T08:18:36.042Z,77.30
2022-10-09T08:21:08.804Z,77.30
2022-10-09T08:23:35.675Z,77.30
2022-10-09T08:26:03.055Z,77.20
2022-10-09T08:28:30.169Z,77.20
2022-10-09T08:30:56.861Z,77.10
2022-10-09T08:33:24.890Z,77.00
2022-10-09T08:35:53.110Z,77.10
2022-10-09T08:38:45.543Z,77.10
2022-10-09T08:41:24.618Z,77.10
2022-10-09T08:44:06.297Z,77.00
2022-10-09T08:47:03.417Z,77.00
2022-10-09T08:49:37.425Z,77.00
2022-10-09T08:52:17.145Z,76.90
2022-10-09T08:54:44.368Z,76.90
2022-10-09T08:57:15.748Z,76.80
2022-10-09T08:59:43.412Z,76.80
2022-10-09T09:02:12.885Z,76.80
2022-10-09T09:05:03.907Z,76.70
2022-10-09T09:07:44.448Z,76.40
2022-10-09T09:10:30.324Z,76.30
2022-10-09T09:13:24.235Z,76.20
2022-10-09T09:16:18.551Z,76.00
2022-10-09T09:18:54.562Z,75.90
2022-10-09T09:21:47.840Z,75.80
2022-10-09T09:24:19.134Z,75.70
2022-10-09T09:26:50.551Z,75.40
2022-10-09T09:29:22.085Z,75.30
2022-10-09T09:31:56.690Z,75.10
2022-10-09T09:34:38.702Z,75.00
2022-10-09T09:37:05.534Z,74.90
2022-10-09T09:40:24.133Z,74.60
2022-10-09T09:42:21.441Z,74.40
2022-10-09T09:44:59.236Z,74.30
2022-10-09T09:47:41.900Z,74.10
2022-10-09T09:50:23.425Z,73.90
2022-10-09T09:52:56.978Z,73.50
2022-10-09T09:55:27.396Z,73.10
2022-10-09T09:58:06.790Z,72.60
2022-10-09T10:00:34.949Z,71.90
2022-10-09T10:03:15.162Z,71.50
2022-10-09T10:05:44.169Z,71.40
2022-10-09T10:08:22.867Z,71.10
2022-10-09T10:10:51.192Z,71.00
2022-10-09T10:13:49.189Z,70.70
2022-10-09T10:16:23.692Z,70.50
2022-10-09T10:18:50.888Z,69.70
2022-10-09T10:21:20.334Z,69.20
2022-10-09T10:23:58.411Z,69.20
2022-10-09T10:26:36.507Z,69.20
2022-10-09T10:29:31.211Z,68.70
2022-10-09T10:32:29.113Z,68.40
2022-10-09T10:35:13.140Z,68.00
2022-10-09T10:38:05.443Z,67.40
2022-10-09T10:40:36.456Z,67.30
2022-10-09T10:43:30.033Z,67.10
2022-10-09T10:46:06.104Z,67.00
2022-10-09T10:48:42.653Z,66.90
2022-10-09T10:51:33.081Z,67.30
2022-10-09T10:54:18.304Z,66.50
2022-10-09T10:57:07.916Z,66.20
2022-10-09T11:00:00.629Z,66.00
2022-10-09T11:02:42.118Z,65.80
2022-10-09T11:05:26.838Z,65.80
2022-10-09T11:08:11.655Z,65.20
2022-10-09T11:10:56.316Z,64.30
2022-10-09T11:13:32.299Z,64.40
2022-10-09T11:16:10.963Z,64.10
2022-10-09T11:18:43.660Z,63.80
2022-10-09T11:21:47.684Z,63.80
2022-10-09T11:24:46.020Z,63.60
2022-10-09T11:27:45.923Z,63.50
2022-10-09T11:30:18.076Z,63.40
2022-10-09T11:32:58.791Z,63.10
2022-10-09T11:35:30.822Z,63.10
2022-10-09T11:38:02.094Z,62.70
2022-10-09T11:40:40.079Z,62.50
2022-10-09T11:43:24.804Z,61.80
2022-10-09T11:46:27.642Z,61.50
2022-10-09T11:49:03.149Z,61.70
2022-10-09T11:51:38.852Z,61.70
2022-10-09T11:54:10.660Z,62.00
2022-10-09T11:56:37.363Z,62.00
2022-10-09T11:59:06.524Z,62.00
2022-10-09T12:01:37.682Z,61.70
2022-10-09T12:04:13.053Z,61.60
2022-10-09T12:06:51.241Z,61.40
2022-10-09T12:09:28.624Z,61.60
2022-10-09T12:12:03.280Z,61.10
2022-10-09T12:14:30.845Z,60.60
2022-10-09T12:16:58.588Z,60.50
2022-10-09T12:19:35.652Z,60.00
2022-10-09T12:22:16.776Z,59.80
2022-10-09T12:24:49.813Z,58.70
2022-10-09T12:27:21.696Z,59.10
2022-10-09T12:29:54.817Z,59.40
2022-10-09T12:32:31.462Z,55.80
2022-10-09T12:34:59.037Z,55.60
2022-10-09T12:37:34.983Z,54.80
2022-10-09T12:40:13.485Z,55.50
2022-10-09T12:42:41.283Z,52.00
2022-10-09T12:45:17.987Z,51.00
2022-10-09T12:47:45.333Z,48.30
2022-10-09T12:50:27.481Z,46.70
2022-10-09T12:52:58.296Z,45.60
2022-10-09T12:55:29.881Z,43.80
2022-10-09T12:58:13.927Z,43.50
2022-10-09T13:00:40.983Z,42.80
2022-10-09T13:03:24.100Z,40.80
2022-10-09T13:05:51.338Z,39.10
2022-10-09T13:08:25.983Z,39.10
2022-10-09T13:10:54.111Z,38.20
2022-10-09T13:13:27.046Z,37.90
2022-10-09T13:16:02.432Z,36.90
2022-10-09T13:18:29.248Z,36.20
2022-10-09T13:21:02.179Z,36.80
2022-10-09T13:23:34.731Z,36.20
2022-10-09T13:26:07.183Z,35.10
2022-10-09T13:28:33.886Z,34.90
2022-10-09T13:31:08.377Z,34.70
2022-10-09T13:33:35.422Z,33.80
2022-10-09T13:36:02.082Z,34.30
2022-10-09T13:38:32.677Z,34.20
2022-10-09T13:41:01.327Z,35.10
2022-10-09T13:43:28.972Z,35.10
2022-10-09T13:45:55.792Z,34.80
2022-10-09T13:48:22.646Z,35.50
2022-10-09T13:50:49.322Z,36.70
2022-10-09T13:53:16.078Z,38.40
2022-10-09T13:55:42.811Z,40.20
2022-10-09T13:58:09.536Z,41.00
2022-10-09T14:00:37.233Z,42.20
2022-10-09T14:03:04.424Z,42.40
2022-10-09T14:05:31.227Z,43.20
2022-10-09T14:07:57.990Z,43.70
2022-10-09T14:10:24.633Z,44.30
2022-10-09T14:12:51.875Z,44.80
2022-10-09T14:15:18.955Z,45.10
2022-10-09T14:17:45.710Z,45.30
2022-10-09T14:20:12.532Z,44.60
2022-10-09T14:22:39.189Z,44.20
2022-10-09T14:25:06.697Z,44.30
2022-10-09T14:30:05.479Z,45.30
2022-10-09T14:32:32.795Z,45.30
2022-10-09T14:34:59.775Z,44.80
2022-10-09T14:37:41.239Z,43.80
2022-10-09T14:40:10.298Z,42.90
2022-10-09T14:42:38.421Z,43.20
2022-10-09T14:45:06.081Z,43.00
2022-10-09T14:47:32.739Z,42.20
2022-10-09T14:49:59.404Z,42.40
2022-10-09T14:52:26.030Z,43.20
2022-10-09T14:54:52.682Z,43.80
2022-10-09T14:57:19.312Z,43.80
2022-10-09T14:59:46.085Z,43.60
2022-10-09T15:02:15.081Z,43.40
2022-10-09T15:04:41.772Z,42.90
2022-10-09T15:07:08.426Z,42.60
2022-10-09T15:09:35.115Z,42.90
2022-10-09T15:12:01.797Z,41.80
2022-10-09T15:14:28.428Z,42.00
2022-10-09T15:16:55.090Z,40.00
2022-10-09T15:19:21.806Z,39.70
2022-10-09T15:21:48.472Z,38.20
2022-10-09T15:24:15.134Z,37.70
2022-10-09T15:26:41.999Z,36.30
2022-10-09T15:29:09.116Z,35.10
2022-10-09T15:31:40.400Z,34.50
2022-10-09T15:34:08.386Z,33.20
2022-10-09T15:36:39.746Z,33.20
2022-10-09T15:39:08.693Z,34.80
2022-10-09T15:41:38.114Z,36.10
2022-10-09T15:44:18.313Z,37.10
2022-10-09T15:46:47.373Z,39.30
2022-10-09T15:49:14.299Z,41.00
2022-10-09T15:51:41.055Z,42.00
2022-10-09T15:54:08.106Z,42.60
2022-10-09T15:56:38.899Z,43.40
2022-10-09T15:59:10.809Z,44.30
2022-10-09T16:01:37.484Z,44.60
2022-10-09T16:04:04.376Z,45.10
2022-10-09T16:06:31.064Z,45.60
2022-10-09T16:08:59.004Z,46.20
2022-10-09T16:11:26.637Z,46.50
2022-10-09T16:13:55.651Z,47.00
2022-10-09T16:16:24.524Z,47.30
2022-10-09T16:18:52.144Z,47.50
2022-10-09T16:21:24.481Z,48.00
2022-10-09T16:23:55.766Z,48.50
2022-10-09T16:26:25.153Z,48.90
2022-10-09T16:28:52.338Z,48.70
2022-10-09T16:31:28.322Z,48.70
2022-10-09T16:33:55.340Z,49.10
2022-10-09T16:36:22.295Z,49.40
2022-10-09T16:38:49.157Z,49.90
2022-10-09T16:41:18.550Z,50.40
2022-10-09T16:43:46.937Z,51.30
2022-10-09T16:46:29.250Z,51.30
2022-10-09T16:48:57.222Z,51.80
2022-10-09T16:51:28.223Z,51.90
2022-10-09T16:53:57.104Z,52.70
2022-10-09T16:56:26.945Z,53.10
2022-10-09T16:58:58.395Z,53.80
2022-10-09T17:01:27.044Z,54.10
2022-10-09T17:03:56.712Z,54.40
2022-10-09T17:06:24.130Z,54.80
2022-10-09T17:08:52.810Z,55.30
2022-10-09T17:11:20.389Z,55.50
2022-10-09T17:13:47.494Z,55.70
2022-10-09T17:16:18.604Z,56.10
2022-10-09T17:18:46.290Z,56.30
2022-10-09T17:21:14.317Z,56.60
2022-10-09T17:23:41.041Z,56.80
2022-10-09T17:26:09.787Z,57.00
2022-10-09T17:28:36.564Z,57.30
2022-10-09T17:31:07.283Z,57.50
2022-10-09T17:33:34.498Z,57.20
2022-10-09T17:36:02.368Z,57.80
2022-10-09T17:38:29.037Z,57.90
2022-10-09T17:40:55.785Z,58.40
2022-10-09T17:43:22.601Z,58.80
2022-10-09T17:45:49.424Z,59.10
2022-10-09T17:48:16.119Z,58.70
2022-10-09T17:50:51.316Z,59.50
2022-10-09T17:53:18.199Z,59.80
2022-10-09T17:55:44.984Z,60.00
2022-10-09T17:58:11.605Z,60.10
2022-10-09T18:00:39.014Z,59.70
2022-10-09T18:03:05.804Z,60.30
2022-10-09T18:05:32.447Z,60.20
2022-10-09T18:07:59.163Z,60.20
2022-10-09T18:10:25.830Z,60.30
2022-10-09T18:12:52.537Z,60.30
2022-10-09T18:15:19.182Z,60.30
2022-10-09T18:17:45.848Z,60.40
2022-10-09T18:20:12.469Z,60.50
2022-10-09T18:22:39.127Z,60.70
2022-10-09T18:25:06.126Z,60.80
2022-10-09T18:27:32.807Z,60.90
2022-10-09T18:29:59.552Z,61.10
2022-10-09T18:32:26.311Z,61.30
2022-10-09T18:34:52.968Z,61.40
2022-10-09T18:37:20.034Z,61.50
2022-10-09T18:39:46.771Z,61.80
2022-10-09T18:42:13.416Z,61.80
2022-10-09T18:44:41.553Z,62.00
2022-10-09T18:47:11.908Z,62.00
2022-10-09T18:49:42.991Z,62.20
2022-10-09T18:52:10.507Z,62.40
2022-10-09T18:54:39.050Z,62.50
2022-10-09T18:57:06.147Z,62.60
2022-10-09T18:59:35.667Z,62.70
2022-10-09T19:02:02.821Z,62.70
2022-10-09T19:04:29.682Z,62.80
2022-10-09T19:06:56.372Z,62.90
2022-10-09T19:09:23.788Z,62.60
2022-10-09T19:11:52.445Z,63.00
2022-10-09T19:14:19.289Z,63.20
2022-10-09T19:16:45.908Z,63.20
2022-10-09T19:19:12.785Z,62.90
2022-10-09T19:21:43.676Z,63.30
2022-10-09T19:24:12.021Z,63.00
2022-10-09T19:26:39.017Z,63.40
2022-10-09T19:29:07.068Z,63.50
2022-10-09T19:31:35.464Z,63.60
2022-10-09T19:34:04.251Z,63.70
2022-10-09T19:36:36.470Z,63.80
2022-10-09T19:39:08.018Z,63.90
2022-10-09T19:41:35.095Z,63.90
2022-10-09T19:44:01.793Z,64.00
2022-10-09T19:46:29.540Z,64.00
2022-10-09T19:48:56.287Z,64.10
2022-10-09T19:51:25.682Z,64.20
2022-10-09T19:53:53.455Z,64.30
2022-10-09T19:56:22.858Z,64.40
2022-10-09T19:58:49.879Z,64.50
2022-10-09T20:01:19.215Z,64.60
2022-10-09T20:03:46.967Z,64.60
2022-10-09T20:06:14.176Z,64.80
2022-10-09T20:08:42.337Z,65.50
2022-10-09T20:11:11.380Z,65.10
2022-10-09T20:13:39.125Z,65.10
2022-10-09T20:16:08.451Z,65.10
2022-10-09T20:18:35.327Z,65.30
2022-10-09T20:21:02.017Z,65.30
2022-10-09T20:23:28.668Z,65.40
2022-10-09T20:26:07.676Z,65.90
2022-10-09T20:28:36.446Z,65.50
2022-10-09T20:31:07.933Z,65.40
2022-10-09T20:33:35.808Z,65.50
2022-10-09T20:36:03.809Z,65.60
2022-10-09T20:38:30.860Z,65.50
2022-10-09T20:41:06.611Z,65.60
2022-10-09T20:43:37.001Z,66.00
2022-10-09T20:46:23.584Z,65.60
2022-10-09T20:48:51.455Z,65.50
2022-10-09T20:51:19.249Z,65.70
2022-10-09T20:53:46.832Z,65.60
2022-10-09T20:56:14.562Z,65.80
2022-10-09T20:58:41.444Z,65.80
2022-10-09T21:01:09.769Z,65.70
2022-10-09T21:03:38.039Z,65.70
2022-10-09T21:06:06.539Z,65.80
2022-10-09T21:08:33.767Z,65.80
2022-10-09T21:11:00.704Z,65.80
2022-10-09T21:13:27.320Z,65.80
2022-10-09T21:15:54.072Z,65.90
2022-10-09T21:18:21.419Z,65.80
2022-10-09T21:20:49.382Z,65.90
2022-10-09T21:23:18.777Z,65.90
2022-10-09T21:25:53.294Z,66.00
2022-10-09T21:28:21.553Z,66.00
2022-10-09T21:30:48.845Z,66.00
2022-10-09T21:33:16.724Z,66.10
2022-10-09T21:35:46.020Z,66.20
2022-10-09T21:38:17.897Z,66.20
2022-10-09T21:40:45.836Z,66.20
2022-10-09T21:43:13.191Z,66.20
2022-10-09T21:45:40.415Z,66.20
2022-10-09T21:48:07.723Z,66.20
2022-10-09T21:50:36.314Z,66.20
2022-10-09T21:53:04.085Z,66.30
2022-10-09T21:55:30.836Z,66.30
2022-10-09T21:57:57.494Z,66.40
2022-10-09T22:00:24.249Z,66.40
2022-10-09T22:02:51.180Z,66.40
2022-10-09T22:05:18.273Z,66.40
2022-10-09T22:07:44.902Z,66.50
2022-10-09T22:10:11.900Z,66.50
2022-10-09T22:12:38.539Z,66.50
2022-10-09T22:15:06.021Z,66.20
2022-10-09T22:17:32.626Z,66.50
2022-10-09T22:19:59.304Z,66.60
2022-10-09T22:22:26.086Z,66.60
2022-10-09T22:24:53.260Z,66.60
2022-10-09T22:27:20.366Z,66.70
2022-10-09T22:29:47.064Z,66.70
2022-10-09T22:32:13.686Z,66.80
2022-10-09T22:34:40.367Z,66.80
2022-10-09T22:37:07.055Z,66.90
2022-10-09T22:39:33.846Z,66.90
2022-10-09T22:42:00.596Z,66.90
2022-10-09T22:44:27.354Z,67.00
2022-10-09T22:46:53.996Z,67.20
2022-10-09T22:49:20.689Z,66.80
2022-10-09T22:51:47.323Z,66.70
2022-10-09T22:54:14.136Z,66.70
2022-10-09T22:56:43.549Z,66.60
2022-10-09T22:59:12.920Z,66.60
2022-10-09T23:01:45.571Z,66.60
2022-10-09T23:04:14.205Z,66.50
2022-10-09T23:06:42.020Z,66.60
2022-10-09T23:09:10.657Z,66.60
2022-10-09T23:11:37.338Z,66.50
2022-10-09T23:14:04.437Z,66.50
2022-10-09T23:16:31.355Z,66.50
2022-10-09T23:19:04.162Z,66.20
2022-10-09T23:21:33.001Z,66.50
2022-10-09T23:23:59.820Z,66.50
2022-10-09T23:26:29.611Z,66.50
2022-10-09T23:29:01.887Z,66.60
2022-10-09T23:31:29.396Z,66.60
2022-10-09T23:33:57.215Z,67.10
2022-10-09T23:36:25.839Z,66.60
2022-10-09T23:38:52.588Z,66.60
2022-10-09T23:41:22.287Z,66.60
2022-10-09T23:43:50.001Z,66.70
2022-10-09T23:46:19.550Z,66.80
2022-10-09T23:48:47.140Z,66.80
2022-10-09T23:51:14.463Z,66.80
2022-10-09T23:53:42.372Z,66.90
2022-10-09T23:56:19.490Z,66.90
2022-10-09T23:58:46.517Z,67.00
